Time;durP1;ratioP1;P1;durP2;ratioP2;P2;SDS_P1;SDS_P2;PMS_P1;PMS_P2;Temp;Humidity;BMP_temperature;BMP_pressure;BME280_temperature;BME280_humidity;BME280_pressure;Samples;Min_cycle;Max_cycle;Signal;HPM_P1;HPM_P2
2023/05/24 00:01:07;;;;;;;10.38;3.03;;;8.90;99.90;;;;;;4988142;28;20056;-86
2023/05/24 00:03:33;;;;;;;13.63;3.30;;;8.90;99.90;;;;;;4971928;28;20583;-86
2023/05/24 00:06:05;;;;;;;10.73;3.40;;;8.90;99.90;;;;;;4979329;28;20030;-87
2023/05/24 00:08:31;;;;;;;8.52;2.85;;;8.80;99.90;;;;;;4985980;28;20026;-87
2023/05/24 00:10:57;;;;;;;17.30;4.28;;;8.80;99.90;;;;;;4984599;28;20058;-87
2023/05/24 00:13:23;;;;;;;8.00;3.08;;;8.80;99.90;;;;;;4985814;28;20026;-86
2023/05/24 00:15:49;;;;;;;9.50;3.17;;;8.80;99.90;;;;;;4969985;28;20042;-87
2023/05/24 00:18:16;;;;;;;8.95;3.10;;;8.80;99.90;;;;;;4983622;28;20105;-86
2023/05/24 00:20:42;;;;;;;14.20;3.60;;;8.70;99.90;;;;;;4974818;28;20109;-86
2023/05/24 00:23:08;;;;;;;10.00;3.30;;;8.80;99.90;;;;;;4984932;28;20061;-86
2023/05/24 00:25:34;;;;;;;10.63;2.95;;;8.80;99.90;;;;;;4972331;28;20045;-85
2023/05/24 00:27:59;;;;;;;11.77;3.65;;;8.80;99.90;;;;;;4979967;28;20035;-86
2023/05/24 00:30:25;;;;;;;10.75;3.22;;;8.70;99.90;;;;;;4978603;28;20185;-86
2023/05/24 00:32:51;;;;;;;8.48;3.35;;;8.70;99.90;;;;;;4979918;28;20049;-85
2023/05/24 00:35:16;;;;;;;9.98;3.13;;;8.70;99.90;;;;;;4979121;28;20046;-86
2023/05/24 00:37:44;;;;;;;10.27;3.40;;;8.60;99.90;;;;;;4964709;28;20038;-85
2023/05/24 00:40:10;;;;;;;8.93;3.50;;;8.60;99.90;;;;;;4970601;28;20124;-85
2023/05/24 00:42:36;;;;;;;13.75;3.95;;;8.60;99.90;;;;;;4986986;28;20048;-85
2023/05/24 00:45:01;;;;;;;8.20;3.38;;;8.60;99.90;;;;;;5000586;28;20087;-84
2023/05/24 00:47:27;;;;;;;8.07;3.58;;;8.60;99.90;;;;;;4971585;28;20067;-86
2023/05/24 00:49:53;;;;;;;8.95;3.17;;;8.60;99.90;;;;;;4964764;28;20039;-85
2023/05/24 00:52:19;;;;;;;9.25;3.55;;;8.60;99.90;;;;;;4977645;28;20053;-85
2023/05/24 00:54:45;;;;;;;9.07;3.65;;;8.60;99.90;;;;;;4985886;28;20460;-86
2023/05/24 00:57:12;;;;;;;9.15;3.65;;;8.60;99.90;;;;;;4980509;28;20026;-86
2023/05/24 00:59:39;;;;;;;7.85;2.88;;;8.60;99.90;;;;;;4979615;28;20038;-86
2023/05/24 01:02:04;;;;;;;6.38;3.20;;;8.60;99.90;;;;;;4994951;28;20138;-82
2023/05/24 01:04:31;;;;;;;8.13;3.15;;;8.70;99.90;;;;;;4991973;28;20078;-85
2023/05/24 01:07:20;;;;;;;10.75;3.75;;;8.70;99.90;;;;;;4974293;28;20022;-85
2023/05/24 01:10:27;;;;;;;7.00;3.30;;;8.70;99.90;;;;;;4975383;28;20057;-84
2023/05/24 01:13:17;;;;;;;7.15;3.22;;;8.70;99.90;;;;;;4948087;28;20051;-84
2023/05/24 01:16:02;;;;;;;9.52;3.50;;;8.60;99.90;;;;;;4974370;28;20165;-85
2023/05/24 01:18:38;;;;;;;11.27;3.05;;;8.60;99.90;;;;;;4973582;28;20138;-85
2023/05/24 01:21:48;;;;;;;9.23;3.53;;;8.60;99.90;;;;;;4987454;28;20039;-84
2023/05/24 01:24:29;;;;;;;7.45;3.50;;;8.50;99.90;;;;;;4987011;28;20053;-85
2023/05/24 01:27:09;;;;;;;9.68;3.75;;;8.50;99.90;;;;;;4985250;28;20030;-84
2023/05/24 01:29:36;;;;;;;9.45;3.75;;;8.40;99.90;;;;;;4972283;28;20800;-84
2023/05/24 01:32:02;;;;;;;8.00;3.17;;;8.40;99.90;;;;;;4983742;28;20068;-83
2023/05/24 01:34:28;;;;;;;9.05;4.10;;;8.40;99.90;;;;;;4984367;28;20030;-84
2023/05/24 01:36:54;;;;;;;10.80;3.90;;;8.40;99.90;;;;;;4966795;28;20081;-85
2023/05/24 01:39:21;;;;;;;8.38;4.10;;;8.50;99.90;;;;;;4971160;28;20076;-85
2023/05/24 01:41:58;;;;;;;10.82;3.60;;;8.50;99.90;;;;;;4965565;28;20062;-84
2023/05/24 01:44:35;;;;;;;12.52;4.00;;;8.50;99.90;;;;;;4970192;28;20026;-84
2023/05/24 01:47:08;;;;;;;8.43;3.33;;;8.40;99.90;;;;;;4966912;28;20023;-84
2023/05/24 01:49:41;;;;;;;9.57;3.33;;;8.40;99.90;;;;;;4968021;28;20042;-84
2023/05/24 01:52:16;;;;;;;10.15;3.92;;;8.40;99.90;;;;;;4990973;28;20026;-84
2023/05/24 01:54:46;;;;;;;11.65;3.97;;;8.40;99.90;;;;;;4986070;28;20022;-86
2023/05/24 01:57:12;;;;;;;9.63;4.07;;;8.40;99.90;;;;;;4985868;28;20656;-83
2023/05/24 01:59:43;;;;;;;9.38;4.15;;;8.40;99.90;;;;;;4970336;28;20039;-84
2023/05/24 02:02:10;;;;;;;14.00;4.75;;;8.40;99.90;;;;;;4974735;28;20106;-85
2023/05/24 02:04:35;;;;;;;10.82;4.35;;;8.40;99.90;;;;;;4965233;28;20078;-85
2023/05/24 02:07:01;;;;;;;10.63;4.00;;;8.40;99.90;;;;;;4965854;28;20447;-85
2023/05/24 02:09:27;;;;;;;10.55;4.00;;;8.30;99.90;;;;;;4965416;28;20106;-84
2023/05/24 02:11:52;;;;;;;12.13;4.00;;;8.30;99.90;;;;;;4984446;28;20038;-84
2023/05/24 02:14:18;;;;;;;11.48;4.00;;;8.40;99.90;;;;;;4965182;28;20023;-85
2023/05/24 02:16:45;;;;;;;15.50;6.80;;;8.40;99.90;;;;;;4965579;28;20100;-85
2023/05/24 02:19:11;;;;;;;10.65;3.97;;;8.40;99.90;;;;;;4970458;28;20035;-84
2023/05/24 02:21:37;;;;;;;10.23;3.65;;;8.40;99.90;;;;;;4989047;28;20056;-85
2023/05/24 02:24:02;;;;;;;9.48;3.63;;;8.40;99.90;;;;;;4980617;28;20117;-84
2023/05/24 02:26:28;;;;;;;9.25;3.78;;;8.40;99.90;;;;;;4972732;28;20038;-84
2023/05/24 02:28:53;;;;;;;10.40;3.63;;;8.50;99.90;;;;;;4969120;28;20049;-85
2023/05/24 02:31:20;;;;;;;11.23;3.53;;;8.50;99.90;;;;;;4965176;28;20034;-84
2023/05/24 02:33:46;;;;;;;8.70;3.75;;;8.60;99.90;;;;;;4973766;28;20038;-85
2023/05/24 02:36:12;;;;;;;7.80;3.38;;;8.60;99.90;;;;;;4979458;28;20119;-84
2023/05/24 02:38:38;;;;;;;5.78;2.97;;;8.70;99.90;;;;;;4971274;28;20030;-85
2023/05/24 02:41:04;;;;;;;9.18;3.30;;;8.80;99.90;;;;;;4966241;28;20832;-85
2023/05/24 02:43:29;;;;;;;8.50;3.25;;;8.80;99.90;;;;;;4980217;28;20087;-85
2023/05/24 02:45:55;;;;;;;6.10;3.47;;;8.80;99.90;;;;;;4985139;28;20481;-84
2023/05/24 02:48:20;;;;;;;7.40;3.35;;;8.90;99.90;;;;;;4980847;28;20035;-85
2023/05/24 02:50:46;;;;;;;10.13;3.45;;;8.90;99.90;;;;;;4965784;28;20042;-85
2023/05/24 02:53:12;;;;;;;8.63;3.22;;;8.90;99.90;;;;;;4965900;28;20058;-85
2023/05/24 02:55:38;;;;;;;7.60;3.20;;;9.00;99.90;;;;;;4965695;28;20038;-85
2023/05/24 02:58:03;;;;;;;11.52;4.00;;;9.00;99.90;;;;;;4975197;28;20026;-84
2023/05/24 03:00:29;;;;;;;6.97;3.15;;;9.10;99.90;;;;;;4972046;28;20035;-86
2023/05/24 03:02:56;;;;;;;10.15;3.47;;;9.10;99.90;;;;;;4975311;28;20141;-86
2023/05/24 03:05:22;;;;;;;7.18;3.42;;;9.20;99.90;;;;;;4985411;28;20026;-85
2023/05/24 03:07:47;;;;;;;7.53;3.53;;;9.30;99.90;;;;;;4978877;28;20155;-85
2023/05/24 03:10:13;;;;;;;8.70;3.75;;;9.40;99.90;;;;;;4964768;28;20116;-85
2023/05/24 03:12:39;;;;;;;10.68;3.90;;;9.40;99.90;;;;;;4972757;28;20061;-85
2023/05/24 03:15:05;;;;;;;9.45;3.60;;;9.30;99.90;;;;;;4984335;28;20034;-84
2023/05/24 03:17:30;;;;;;;5.78;3.08;;;9.30;99.90;;;;;;4986148;28;20026;-84
2023/05/24 03:19:56;;;;;;;5.53;2.65;;;9.30;99.90;;;;;;4994762;28;20030;-85
2023/05/24 03:22:22;;;;;;;8.25;3.45;;;9.10;99.90;;;;;;4965154;28;20046;-84
2023/05/24 03:24:47;;;;;;;6.30;2.78;;;9.00;99.90;;;;;;4970190;28;20083;-85
2023/05/24 03:27:13;;;;;;;6.63;2.55;;;8.90;99.90;;;;;;4983866;28;20109;-85
2023/05/24 03:29:38;;;;;;;7.88;2.90;;;8.80;99.90;;;;;;4986719;28;20038;-85
2023/05/24 03:32:04;;;;;;;4.85;2.50;;;8.70;99.90;;;;;;4967919;28;20034;-82
2023/05/24 03:34:30;;;;;;;5.15;2.88;;;8.70;99.90;;;;;;4983892;28;20026;-84
2023/05/24 03:36:56;;;;;;;7.75;3.00;;;8.60;99.90;;;;;;4969501;28;20050;-85
2023/05/24 03:39:21;;;;;;;7.80;3.08;;;8.50;99.90;;;;;;4965208;28;20387;-85
2023/05/24 03:41:47;;;;;;;6.50;2.65;;;8.60;99.90;;;;;;4965235;28;20461;-85
2023/05/24 03:44:13;;;;;;;8.00;3.28;;;8.60;99.90;;;;;;4963739;28;20526;-85
2023/05/24 03:46:38;;;;;;;6.10;2.95;;;8.60;99.90;;;;;;4971642;28;20092;-85
2023/05/24 03:49:06;;;;;;;8.27;3.03;;;8.60;99.90;;;;;;4971993;28;20049;-85
2023/05/24 03:51:32;;;;;;;6.68;3.10;;;8.60;99.90;;;;;;4978071;28;20082;-85
2023/05/24 03:53:58;;;;;;;9.77;2.95;;;8.70;99.90;;;;;;4985818;28;20072;-85
2023/05/24 03:56:25;;;;;;;6.90;2.70;;;8.70;99.90;;;;;;4974602;28;20030;-85
2023/05/24 03:58:51;;;;;;;10.85;3.13;;;8.80;99.90;;;;;;4975058;28;20734;-85
2023/05/24 04:01:17;;;;;;;8.20;3.38;;;8.80;99.90;;;;;;4969855;28;20030;-85
2023/05/24 04:03:44;;;;;;;6.78;3.33;;;8.70;99.90;;;;;;4969127;28;20486;-85
2023/05/24 04:06:11;;;;;;;8.00;3.20;;;8.80;99.90;;;;;;4974762;28;20029;-85
2023/05/24 04:08:36;;;;;;;10.13;3.13;;;8.80;99.90;;;;;;4970349;28;20042;-85
2023/05/24 04:11:02;;;;;;;11.15;3.60;;;8.70;99.90;;;;;;4972608;28;20034;-85
2023/05/24 04:13:27;;;;;;;7.85;3.25;;;8.70;99.90;;;;;;4983066;28;20477;-85
2023/05/24 04:15:53;;;;;;;8.98;3.88;;;8.60;99.90;;;;;;4984686;28;20041;-85
2023/05/24 04:18:19;;;;;;;10.02;3.63;;;8.60;99.90;;;;;;4986992;28;20369;-85
2023/05/24 04:20:44;;;;;;;6.35;3.42;;;8.60;99.90;;;;;;4988922;28;20043;-85
2023/05/24 04:23:10;;;;;;;9.23;3.67;;;8.60;99.90;;;;;;4974634;28;20030;-84
2023/05/24 04:25:35;;;;;;;8.68;3.53;;;8.60;99.90;;;;;;4969536;28;20038;-85
2023/05/24 04:28:02;;;;;;;11.90;4.55;;;8.50;99.90;;;;;;4976299;28;20113;-85
2023/05/24 04:30:29;;;;;;;8.95;3.65;;;8.60;99.90;;;;;;4985177;28;20677;-85
2023/05/24 04:32:55;;;;;;;10.98;4.00;;;8.60;99.90;;;;;;4987925;28;20027;-84
2023/05/24 04:35:22;;;;;;;10.85;3.55;;;8.60;99.90;;;;;;4987903;28;20026;-85
2023/05/24 04:37:49;;;;;;;10.43;3.67;;;8.60;99.90;;;;;;4982124;28;20026;-85
2023/05/24 04:40:15;;;;;;;10.13;3.13;;;8.70;99.90;;;;;;4968554;28;20081;-85
2023/05/24 04:42:41;;;;;;;8.60;3.65;;;8.70;99.90;;;;;;4983012;28;20385;-84
2023/05/24 04:45:07;;;;;;;7.72;3.15;;;8.70;99.90;;;;;;4971617;28;20033;-85
2023/05/24 04:47:32;;;;;;;7.03;3.70;;;8.80;99.90;;;;;;4975750;28;20031;-84
2023/05/24 04:49:58;;;;;;;6.10;3.25;;;8.80;99.90;;;;;;4973258;28;20034;-85
2023/05/24 04:52:24;;;;;;;7.35;3.33;;;8.80;99.90;;;;;;4984478;28;20026;-85
2023/05/24 04:54:50;;;;;;;9.00;3.60;;;8.90;99.90;;;;;;4981082;28;20031;-85
2023/05/24 04:57:16;;;;;;;8.27;3.40;;;8.90;99.90;;;;;;4971281;28;20433;-84
2023/05/24 04:59:42;;;;;;;8.73;3.63;;;9.00;99.90;;;;;;4998215;28;20026;-84
2023/05/24 05:02:08;;;;;;;8.63;2.85;;;9.10;99.90;;;;;;4975085;28;20123;-85
2023/05/24 05:04:33;;;;;;;9.25;3.42;;;9.10;99.90;;;;;;4983508;28;20070;-85
2023/05/24 05:06:59;;;;;;;11.07;3.47;;;9.20;99.90;;;;;;4970486;28;20848;-85
2023/05/24 05:09:25;;;;;;;6.10;3.13;;;9.30;99.90;;;;;;4985460;28;20534;-85
2023/05/24 05:11:50;;;;;;;13.35;4.05;;;9.30;99.90;;;;;;4979229;28;20035;-85
2023/05/24 05:14:16;;;;;;;11.30;3.63;;;9.40;99.90;;;;;;4970972;28;20033;-85
2023/05/24 05:16:42;;;;;;;7.07;3.80;;;9.50;99.90;;;;;;4968528;28;20889;-85
2023/05/24 05:19:07;;;;;;;8.23;3.78;;;9.60;99.90;;;;;;4984119;28;20030;-85
2023/05/24 05:21:33;;;;;;;6.15;3.25;;;9.60;99.90;;;;;;4981218;28;20051;-86
2023/05/24 05:24:02;;;;;;;7.85;3.53;;;9.70;99.90;;;;;;4968801;28;20117;-84
2023/05/24 05:26:28;;;;;;;11.63;4.40;;;9.80;99.90;;;;;;4985917;28;20038;-84
2023/05/24 05:28:54;;;;;;;10.25;3.67;;;9.90;99.90;;;;;;4980866;28;20038;-85
2023/05/24 05:31:21;;;;;;;9.85;3.78;;;10.00;99.90;;;;;;4976323;28;20125;-85
2023/05/24 05:33:46;;;;;;;10.50;3.67;;;10.00;99.90;;;;;;4975785;28;20039;-85
2023/05/24 05:36:12;;;;;;;7.55;3.47;;;10.10;99.90;;;;;;4982829;28;20034;-85
2023/05/24 05:38:37;;;;;;;8.95;3.60;;;10.20;99.90;;;;;;4984321;28;20018;-85
2023/05/24 05:41:03;;;;;;;12.98;3.42;;;10.30;99.90;;;;;;4978217;28;20035;-86
2023/05/24 05:43:30;;;;;;;7.55;3.17;;;10.40;99.90;;;;;;4969030;28;20975;-83
2023/05/24 05:45:56;;;;;;;13.73;3.53;;;10.40;99.90;;;;;;4979910;28;20035;-84
2023/05/24 05:48:21;;;;;;;7.85;3.35;;;10.50;99.90;;;;;;4973295;28;20053;-85
2023/05/24 05:50:47;;;;;;;15.07;3.38;;;10.60;99.90;;;;;;4981897;28;20375;-85
2023/05/24 05:53:15;;;;;;;12.38;3.38;;;10.70;99.90;;;;;;4966934;28;20041;-84
2023/05/24 05:55:40;;;;;;;7.13;3.08;;;10.80;99.90;;;;;;4965143;28;20031;-85
2023/05/24 05:58:06;;;;;;;12.07;4.22;;;10.90;99.90;;;;;;4971038;28;20056;-84
2023/05/24 06:00:31;;;;;;;11.02;4.60;;;11.10;99.90;;;;;;4978452;28;20089;-86
2023/05/24 06:02:57;;;;;;;13.45;3.47;;;11.20;99.90;;;;;;4968196;28;20054;-85
2023/05/24 06:05:23;;;;;;;11.68;3.90;;;11.30;99.90;;;;;;4966385;28;20941;-85
2023/05/24 06:07:48;;;;;;;14.65;3.90;;;11.40;99.90;;;;;;4968798;28;20030;-85
2023/05/24 06:10:14;;;;;;;15.05;4.28;;;11.50;99.90;;;;;;4979736;28;20041;-85
2023/05/24 06:12:40;;;;;;;11.52;4.75;;;11.60;99.90;;;;;;4966275;28;20384;-86
2023/05/24 06:15:06;;;;;;;10.20;4.43;;;11.60;99.90;;;;;;4971916;28;20031;-86
2023/05/24 06:17:36;;;;;;;34.35;10.48;;;11.70;99.90;;;;;;4977943;28;20042;-86
2023/05/24 06:20:08;;;;;;;12.73;4.82;;;11.70;99.90;;;;;;4967746;28;20124;-85
2023/05/24 06:22:35;;;;;;;22.70;7.88;;;11.80;99.90;;;;;;4974007;28;20088;-84
2023/05/24 06:25:01;;;;;;;14.68;4.80;;;12.00;99.90;;;;;;4967388;28;20269;-85
2023/05/24 06:27:27;;;;;;;12.52;4.68;;;12.00;99.90;;;;;;4977469;28;20058;-84
2023/05/24 06:29:52;;;;;;;11.55;4.60;;;12.10;99.90;;;;;;4966674;28;20039;-88
2023/05/24 06:32:18;;;;;;;14.00;4.85;;;12.30;99.90;;;;;;4978056;28;20077;-86
2023/05/24 06:34:43;;;;;;;17.42;4.75;;;12.50;99.90;;;;;;4987172;28;20018;-85
2023/05/24 06:37:09;;;;;;;58.47;38.08;;;12.70;99.90;;;;;;4985643;28;20054;-85
2023/05/24 06:39:35;;;;;;;65.35;33.20;;;12.90;99.90;;;;;;4983585;28;20428;-84
2023/05/24 06:42:01;;;;;;;13.05;5.00;;;13.10;99.90;;;;;;4986340;28;20036;-87
2023/05/24 06:44:32;;;;;;;16.65;4.88;;;13.20;99.90;;;;;;4984945;28;20670;-87
2023/05/24 06:46:58;;;;;;;;;;;13.30;99.90;;;;;;4974913;28;20031;-85
2023/05/24 06:49:24;;;;;;;9.55;4.32;;;13.40;99.90;;;;;;4967465;28;20264;-88
2023/05/24 06:51:49;;;;;;;16.77;5.00;;;13.50;99.90;;;;;;4974269;28;20478;-85
2023/05/24 06:54:15;;;;;;;12.07;4.13;;;13.60;99.90;;;;;;4966012;28;20030;-88
2023/05/24 06:56:40;;;;;;;10.73;4.60;;;13.70;99.90;;;;;;4979279;28;20034;-83
2023/05/24 06:59:07;;;;;;;10.15;5.25;;;13.70;99.90;;;;;;4977713;28;20210;-87
2023/05/24 07:01:33;;;;;;;20.90;5.47;;;13.60;99.90;;;;;;4969135;28;20080;-87
2023/05/24 07:03:58;;;;;;;16.77;4.97;;;13.70;99.90;;;;;;4981916;28;20042;-86
2023/05/24 07:06:24;;;;;;;14.10;4.45;;;13.90;99.90;;;;;;4962671;28;20030;-86
2023/05/24 07:08:50;;;;;;;26.00;10.13;;;14.00;99.90;;;;;;4988467;28;20030;-87
2023/05/24 07:11:15;;;;;;;40.40;16.80;;;14.10;99.90;;;;;;4980404;28;20124;-84
2023/05/24 07:13:41;;;;;;;12.80;4.97;;;14.20;99.90;;;;;;4972426;28;20034;-86
2023/05/24 07:16:06;;;;;;;17.50;4.43;;;14.20;99.90;;;;;;4976187;28;20030;-86
2023/05/24 07:18:32;;;;;;;16.60;4.68;;;14.40;99.90;;;;;;4971840;28;20081;-85
2023/05/24 07:20:58;;;;;;;13.35;4.32;;;14.60;99.90;;;;;;4965516;28;20035;-87
2023/05/24 07:23:24;;;;;;;18.23;4.45;;;14.70;99.90;;;;;;4983819;28;20041;-87
2023/05/24 07:25:50;;;;;;;21.17;4.22;;;14.90;99.90;;;;;;4984932;28;20102;-86
2023/05/24 07:28:18;;;;;;;14.00;3.42;;;15.30;99.90;;;;;;4983655;28;20058;-86
2023/05/24 07:30:44;;;;;;;10.63;4.30;;;15.70;99.90;;;;;;4978122;28;20042;-85
2023/05/24 07:33:11;;;;;;;12.50;3.70;;;16.20;99.90;;;;;;4625112;28;9999875;-85
2023/05/24 07:35:37;;;;;;;16.63;4.00;;;16.90;99.60;;;;;;4979528;28;20076;-86
2023/05/24 07:38:02;;;;;;;18.30;3.88;;;17.50;98.70;;;;;;4982601;28;20034;-87
2023/05/24 07:40:28;;;;;;;11.25;3.25;;;18.80;96.10;;;;;;4976166;28;20143;-86
2023/05/24 07:42:54;;;;;;;9.98;3.60;;;20.70;87.90;;;;;;4976730;28;20042;-85
2023/05/24 07:45:19;;;;;;;14.38;3.42;;;22.50;72.10;;;;;;4973093;28;20806;-86
2023/05/24 07:47:45;;;;;;;12.68;3.75;;;24.70;55.10;;;;;;4964795;28;20047;-87
2023/05/24 07:50:11;;;;;;;9.57;3.30;;;26.10;45.30;;;;;;4971144;28;20527;-85
2023/05/24 07:52:37;;;;;;;10.57;3.17;;;27.50;42.60;;;;;;4974435;28;20026;-87
2023/05/24 07:55:04;;;;;;;10.10;2.97;;;28.20;40.40;;;;;;4966458;28;20057;-88
2023/05/24 07:57:29;;;;;;;10.32;3.20;;;29.60;39.10;;;;;;4974846;28;20084;-85
2023/05/24 07:59:55;;;;;;;8.32;2.97;;;30.20;34.70;;;;;;4962655;28;20608;-87
2023/05/24 08:02:21;;;;;;;12.25;3.33;;;31.40;34.50;;;;;;4965163;28;20130;-86
2023/05/24 08:04:47;;;;;;;7.70;2.67;;;31.90;32.00;;;;;;4963133;28;20131;-87
2023/05/24 08:07:13;;;;;;;9.48;3.00;;;32.70;32.80;;;;;;4973949;28;20044;-87
2023/05/24 08:09:39;;;;;;;10.48;2.75;;;33.60;30.80;;;;;;4972622;28;20023;-86
2023/05/24 08:12:05;;;;;;;11.00;3.05;;;34.10;32.30;;;;;;4963858;28;20027;-82
2023/05/24 08:14:31;;;;;;;12.35;3.15;;;34.90;30.10;;;;;;4964565;28;20027;-85
2023/05/24 08:16:56;;;;;;;11.05;3.17;;;35.40;30.80;;;;;;4967943;28;20080;-87
2023/05/24 08:19:22;;;;;;;10.80;3.38;;;35.60;29.00;;;;;;4972534;28;20026;-85
2023/05/24 08:21:49;;;;;;;9.40;2.60;;;36.00;28.70;;;;;;4965266;28;20077;-86
2023/05/24 08:24:15;;;;;;;7.95;2.83;;;36.50;28.40;;;;;;4967522;28;20207;-84
2023/05/24 08:26:42;;;;;;;10.35;3.22;;;37.50;28.80;;;;;;4969237;28;20038;-86
2023/05/24 08:29:08;;;;;;;10.20;3.00;;;37.60;26.60;;;;;;4975675;28;20036;-84
2023/05/24 08:31:33;;;;;;;11.85;3.13;;;37.70;26.10;;;;;;4995188;28;20121;-86
2023/05/24 08:34:00;;;;;;;16.95;3.60;;;37.90;27.10;;;;;;4974175;28;20040;-85
2023/05/24 08:36:25;;;;;;;9.68;2.88;;;38.20;25.60;;;;;;4977470;28;20031;-84
2023/05/24 08:38:51;;;;;;;17.75;3.70;;;37.40;26.10;;;;;;4974328;28;20056;-85
2023/05/24 08:41:17;;;;;;;10.43;2.90;;;37.80;26.00;;;;;;4980619;28;20449;-85
2023/05/24 08:43:43;;;;;;;8.90;3.08;;;38.20;25.20;;;;;;4976543;28;20053;-87
2023/05/24 08:46:10;;;;;;;12.85;3.33;;;38.20;26.00;;;;;;4973859;28;20585;-85
2023/05/24 08:48:46;;;;;;;11.25;3.05;;;38.80;26.60;;;;;;4969623;28;20629;-84
2023/05/24 08:51:14;;;;;;;9.23;2.95;;;39.00;27.00;;;;;;4979075;28;20116;-86
2023/05/24 08:53:47;;;;;;;16.05;3.28;;;38.40;25.40;;;;;;4984255;28;20241;-85
2023/05/24 08:56:16;;;;;;;9.88;3.00;;;38.80;26.40;;;;;;4978384;28;20382;-87
2023/05/24 08:58:42;;;;;;;12.82;2.75;;;39.30;24.40;;;;;;4969747;28;20083;-87
2023/05/24 09:01:09;;;;;;;11.20;3.08;;;38.90;25.00;;;;;;4966426;28;20030;-85
2023/05/24 09:03:36;;;;;;;14.98;2.92;;;38.80;26.30;;;;;;5001760;23;20115;-72
2023/05/24 09:06:03;;;;;;;9.57;3.17;;;38.60;25.60;;;;;;5015681;28;20037;-72
2023/05/24 09:08:32;;;;;;;10.65;3.13;;;38.40;25.10;;;;;;5024436;28;20028;-72
2023/05/24 09:10:58;;;;;;;9.02;3.03;;;38.70;26.30;;;;;;5017061;28;20576;-72
2023/05/24 09:13:24;;;;;;;10.07;2.60;;;39.00;24.10;;;;;;5000022;28;20034;-71
2023/05/24 09:15:50;;;;;;;9.10;3.00;;;39.30;24.90;;;;;;4999636;28;20073;-72
2023/05/24 09:18:16;;;;;;;7.25;2.63;;;39.50;24.90;;;;;;5013836;28;20199;-72
2023/05/24 09:20:41;;;;;;;9.15;2.50;;;39.60;25.20;;;;;;5031455;28;20064;-72
2023/05/24 09:23:08;;;;;;;15.98;3.05;;;38.70;24.20;;;;;;5008248;28;20037;-70
2023/05/24 09:25:33;;;;;;;7.25;2.67;;;38.30;26.20;;;;;;5009133;28;20492;-71
2023/05/24 09:28:06;;;;;;;16.10;3.55;;;38.00;26.40;;;;;;5013897;28;20029;-73
2023/05/24 09:30:32;;;;;;;13.68;3.03;;;38.70;25.30;;;;;;5006968;28;20030;-72
2023/05/24 09:32:59;;;;;;;9.68;3.25;;;39.30;24.80;;;;;;5035337;28;20034;-72
2023/05/24 09:35:28;;;;;;;7.38;3.00;;;38.90;23.00;;;;;;5019505;28;20028;-70
2023/05/24 09:38:00;;;;;;;10.18;3.25;;;38.70;25.40;;;;;;5015407;28;20034;-71
2023/05/24 09:40:27;;;;;;;10.38;3.40;;;37.50;23.70;;;;;;5015831;28;20041;-72
2023/05/24 09:43:07;;;;;;;9.20;2.97;;;38.00;24.80;;;;;;5036532;28;20036;-72
2023/05/24 09:45:39;;;;;;;10.32;3.20;;;38.10;25.00;;;;;;5035543;28;20029;-70
2023/05/24 09:48:10;;;;;;;9.70;2.97;;;38.20;26.50;;;;;;5040317;28;20361;-72
2023/05/24 09:50:35;;;;;;;8.60;3.30;;;38.40;23.90;;;;;;5040378;28;20061;-72
2023/05/24 09:53:02;;;;;;;9.45;2.80;;;38.50;25.60;;;;;;5025386;28;20495;-72
2023/05/24 09:55:28;;;;;;;7.90;3.15;;;39.40;25.50;;;;;;5034249;28;20057;-73
2023/05/24 09:58:07;;;;;;;10.77;3.30;;;38.90;25.90;;;;;;5007873;28;20029;-73
2023/05/24 10:00:39;;;;;;;19.05;3.22;;;38.90;25.10;;;;;;5007559;28;20479;-72
2023/05/24 10:03:07;;;;;;;7.28;2.63;;;39.70;24.30;;;;;;5000930;28;20075;-72
2023/05/24 10:05:34;;;;;;;8.93;3.35;;;40.10;25.50;;;;;;4999056;28;20151;-71
2023/05/24 10:08:03;;;;;;;11.02;3.25;;;38.70;25.90;;;;;;4638683;28;9999628;-71
2023/05/24 10:10:32;;;;;;;9.43;3.50;;;39.30;25.20;;;;;;5000105;28;20811;-72
2023/05/24 10:12:59;;;;;;;9.70;2.88;;;39.00;23.30;;;;;;5003394;28;20400;-71
2023/05/24 10:15:26;;;;;;;13.85;3.53;;;39.60;24.70;;;;;;5001522;28;20412;-71
2023/05/24 10:17:53;;;;;;;10.05;3.13;;;40.00;24.80;;;;;;5002448;28;20033;-72
2023/05/24 10:20:19;;;;;;;16.40;3.05;;;40.70;23.90;;;;;;5004538;28;20075;-72
2023/05/24 10:22:49;;;;;;;11.73;3.45;;;40.40;23.60;;;;;;5021217;28;20033;-72
2023/05/24 10:25:26;;;;;;;10.77;2.90;;;40.10;22.70;;;;;;5022756;28;20025;-72
2023/05/24 10:27:55;;;;;;;10.40;3.38;;;39.60;24.60;;;;;;5011689;28;20432;-72
2023/05/24 10:30:27;;;;;;;11.68;3.40;;;39.60;21.60;;;;;;5013514;28;20551;-72
2023/05/24 10:32:55;;;;;;;10.43;2.95;;;39.20;22.30;;;;;;5012419;28;20524;-71
2023/05/24 10:35:22;;;;;;;10.90;3.53;;;39.50;24.00;;;;;;5013888;28;20052;-72
2023/05/24 10:37:48;;;;;;;11.63;3.03;;;39.50;23.10;;;;;;5014218;28;20109;-72
2023/05/24 10:40:21;;;;;;;8.80;3.00;;;39.50;23.40;;;;;;5017608;28;20466;-72
2023/05/24 10:42:47;;;;;;;7.75;2.50;;;39.00;24.10;;;;;;5033853;28;20177;-72
2023/05/24 10:45:22;;;;;;;8.05;2.67;;;39.50;24.00;;;;;;5029144;28;20138;-72
2023/05/24 10:47:48;;;;;;;11.20;3.30;;;39.90;24.00;;;;;;5027758;28;20022;-71
2023/05/24 10:50:17;;;;;;;12.23;3.78;;;39.70;24.00;;;;;;5010120;28;20425;-72
2023/05/24 10:52:43;;;;;;;11.25;2.83;;;39.60;21.50;;;;;;5016150;28;20029;-72
2023/05/24 10:55:10;;;;;;;11.13;3.20;;;39.30;22.00;;;;;;5002576;28;20373;-71
2023/05/24 10:57:37;;;;;;;9.85;2.75;;;38.40;24.40;;;;;;5026639;28;20444;-71
2023/05/24 11:00:24;;;;;;;11.07;3.08;;;38.60;24.40;;;;;;5020867;28;20044;-72
2023/05/24 11:03:01;;;;;;;12.15;3.40;;;38.40;24.10;;;;;;5010997;28;20075;-72
2023/05/24 11:05:49;;;;;;;10.10;3.53;;;37.60;22.90;;;;;;4995841;23;20465;-71
2023/05/24 11:08:32;;;;;;;11.82;3.45;;;36.80;23.00;;;;;;4970933;28;20037;-71
2023/05/24 11:11:10;;;;;;;11.55;3.40;;;36.10;24.90;;;;;;4965613;28;20356;-71
2023/05/24 11:13:38;;;;;;;16.95;2.95;;;35.10;26.60;;;;;;4955497;28;20027;-71
2023/05/24 11:16:04;;;;;;;14.48;3.60;;;36.30;26.60;;;;;;4964539;28;20052;-71
2023/05/24 11:18:31;;;;;;;13.13;3.80;;;37.40;25.10;;;;;;4969133;28;20022;-71
2023/05/24 11:21:00;;;;;;;13.55;3.20;;;36.40;24.80;;;;;;4962539;28;20034;-71
2023/05/24 11:23:27;;;;;;;13.65;3.70;;;35.90;28.90;;;;;;4959800;28;20022;-71
2023/05/24 11:25:54;;;;;;;12.32;3.97;;;34.70;25.50;;;;;;4958491;28;20172;-71
2023/05/24 11:28:20;;;;;;;11.65;3.22;;;33.30;29.50;;;;;;4965792;28;20046;-71
2023/05/24 11:30:47;;;;;;;10.07;3.28;;;31.30;29.70;;;;;;4974713;28;20120;-71
2023/05/24 11:33:23;;;;;;;14.52;3.70;;;30.40;34.10;;;;;;4970214;28;20403;-71
2023/05/24 11:35:53;;;;;;;11.15;3.53;;;29.50;34.80;;;;;;4973399;28;20061;-71
2023/05/24 11:38:20;;;;;;;11.15;3.70;;;28.70;33.20;;;;;;4955943;28;20661;-71
2023/05/24 11:40:48;;;;;;;14.80;3.75;;;28.10;34.10;;;;;;4959721;28;20034;-73
2023/05/24 11:43:18;;;;;;;21.75;5.80;;;28.40;38.60;;;;;;4958117;28;20023;-72
2023/05/24 11:45:45;;;;;;;;;;;28.00;48.10;;;;;;4966808;28;20521;-71
2023/05/24 11:48:11;;;;;;;37.63;4.32;;;26.60;50.40;;;;;;4976008;28;19961;-71
2023/05/24 11:50:42;;;;;;;12.48;3.88;;;26.50;44.80;;;;;;4972664;28;20157;-70
2023/05/24 11:53:12;;;;;;;16.08;3.70;;;26.50;47.30;;;;;;4963117;28;20520;-71
2023/05/24 11:55:41;;;;;;;19.77;4.80;;;26.90;51.00;;;;;;4962650;28;20034;-71
2023/05/24 11:58:15;;;;;;;10.55;3.78;;;26.50;43.90;;;;;;4953488;28;20038;-71
2023/05/24 12:00:46;;;;;;;11.35;3.53;;;25.80;36.90;;;;;;4956536;28;20062;-70
2023/05/24 12:03:12;;;;;;;11.30;3.38;;;26.10;40.50;;;;;;4961263;28;20030;-71
2023/05/24 12:05:38;;;;;;;11.38;3.78;;;25.90;47.20;;;;;;4968074;28;20432;-71
2023/05/24 12:08:08;;;;;;;14.73;4.07;;;26.10;41.70;;;;;;4953555;28;20027;-71
2023/05/24 12:10:35;;;;;;;31.27;4.45;;;26.40;41.00;;;;;;4956807;28;20157;-71
2023/05/24 12:13:18;;;;;;;12.40;3.38;;;26.40;43.70;;;;;;4958132;28;20045;-72
2023/05/24 12:15:44;;;;;;;14.38;4.35;;;26.40;42.80;;;;;;4957879;28;20048;-71
2023/05/24 12:18:19;;;;;;;11.95;3.78;;;26.40;37.20;;;;;;4959777;28;20588;-72
2023/05/24 12:20:47;;;;;;;11.80;3.83;;;26.30;38.10;;;;;;4958804;28;20030;-71
2023/05/24 12:23:13;;;;;;;15.18;3.38;;;26.70;43.40;;;;;;4958363;28;20089;-71
2023/05/24 12:25:39;;;;;;;11.48;3.53;;;26.60;35.90;;;;;;4967731;28;20117;-71
2023/05/24 12:28:05;;;;;;;12.45;3.58;;;26.60;39.50;;;;;;4967661;28;20030;-71
2023/05/24 12:30:30;;;;;;;11.90;3.70;;;27.20;44.80;;;;;;4973686;28;20078;-71
2023/05/24 12:32:57;;;;;;;13.68;3.58;;;26.80;40.00;;;;;;4960112;28;20457;-71
2023/05/24 12:35:22;;;;;;;10.57;3.33;;;26.40;42.00;;;;;;4974044;28;20213;-71
2023/05/24 12:37:48;;;;;;;10.63;3.47;;;25.70;38.90;;;;;;4967291;28;20057;-71
2023/05/24 12:40:22;;;;;;;17.27;4.05;;;25.80;45.40;;;;;;4963678;28;20022;-71
2023/05/24 12:42:56;;;;;;;38.35;13.45;;;26.30;38.80;;;;;;4977305;28;20038;-71
2023/05/24 12:45:24;;;;;;;20.67;4.43;;;26.70;46.80;;;;;;4979002;28;20129;-71
2023/05/24 12:47:54;;;;;;;14.10;4.03;;;26.50;41.40;;;;;;4967026;28;20034;-72